Time,TemperatureC,DewpointC,PressurehPa,WindDirection,WindDirectionDegrees,WindSpeedKMH,WindSpeedGustKMH,Humidity,HourlyPrecipMM,Conditions,Clouds,dailyrainMM,SolarRadiationWatts/m^2,UVIndex,SoftwareType,DateUTC
2020-09-27 00:03:51,6.6,8.5,993.6,SW,225,3.3,3.3,86.5,0.0,,,0.0,0,0,n/a,2020-09-26T22:03:51Z
2020-09-27 00:09:51,6.6,8.5,993.6,WSW,247,1.3,1.3,86.4,0.0,,,0.0,2,0,n/a,2020-09-26T22:09:51Z
2020-09-27 00:18:51,6.6,8.6,993.6,WNW,292,0,0,86.5,0.0,,,0.0,2,0,n/a,2020-09-26T22:18:51Z
2020-09-27 00:24:51,6.5,8.5,993.9,North,0,0,0,86.1,0.0,,,0.0,2,0,n/a,2020-09-26T22:24:51Z
2020-09-27 00:27:51,6.4,8.7,993.9,WNW,292,0,0,86.5,0.0,,,0.0,2,0,n/a,2020-09-26T22:27:51Z
2020-09-27 00:30:51,6.4,8.5,993.9,WNW,292,0,0,86,0.0,,,0.0,0,0,n/a,2020-09-26T22:30:51Z
2020-09-27 00:36:51,6.3,8.3,994.2,WNW,292,1.3,1.3,85.8,0.0,,,0.0,2,0,n/a,2020-09-26T22:36:51Z
2020-09-27 00:42:51,6.2,8.3,994.2,North,0,0,0,85.7,0.0,,,0.0,0,0,n/a,2020-09-26T22:42:51Z
2020-09-27 00:45:51,6.2,8,994.2,North,0,0,0,84.6,0.0,,,0.0,0,0,n/a,2020-09-26T22:45:51Z
2020-09-27 00:54:51,6.2,8.1,994.4,North,0,0,0,85.1,0.0,,,0.0,0,0,n/a,2020-09-26T22:54:51Z
2020-09-27 00:57:51,6.2,8,994.4,WNW,292,0,0,84.9,0.0,,,0.0,0,0,n/a,2020-09-26T22:57:51Z
2020-09-27 01:03:51,6.2,8.1,994.4,WNW,292,0,0,85.3,0.0,,,0.0,0,0,n/a,2020-09-26T23:03:51Z
2020-09-27 01:09:51,6.1,8.1,994.4,WSW,247,0,0,85.1,0.0,,,0.0,0,0,n/a,2020-09-26T23:09:51Z
2020-09-27 01:12:51,6.1,8,994.4,WSW,247,0,0,84.9,0.0,,,0.0,0,0,n/a,2020-09-26T23:12:51Z
2020-09-27 01:18:51,6.1,8,994.4,WSW,247,0,0,84.9,0.0,,,0.0,0,0,n/a,2020-09-26T23:18:51Z
2020-09-27 01:24:51,6.1,7.9,994.7,WSW,247,0,0,84.8,0.0,,,0.0,0,0,n/a,2020-09-26T23:24:51Z
2020-09-27 01:27:51,6.1,8,994.7,North,0,0,0,84.9,0.0,,,0.0,2,0,n/a,2020-09-26T23:27:51Z
2020-09-27 01:33:51,6.1,7.9,995.0,North,0,0,0,84.7,0.0,,,0.0,2,0,n/a,2020-09-26T23:33:51Z
2020-09-27 01:36:51,6,8,995.0,WSW,247,0,0,84.6,0.0,,,0.0,0,0,n/a,2020-09-26T23:36:51Z
2020-09-27 01:42:51,5.9,7.9,995.0,North,0,0,0,84.9,0.0,,,0.0,2,0,n/a,2020-09-26T23:42:51Z
2020-09-27 01:48:51,6,7.8,995.0,North,0,0,0,84.5,0.0,,,0.0,0,0,n/a,2020-09-26T23:48:51Z
2020-09-27 01:54:50,6,7.8,995.0,WSW,247,0,0,84.6,0.0,,,0.0,2,0,n/a,2020-09-26T23:54:50Z
2020-09-27 02:03:51,6,7.9,995.2,WSW,247,0,0,84.8,0.0,,,0.0,0,0,n/a,2020-09-27T00:03:51Z
2020-09-27 02:09:51,6,7.9,995.5,North,0,0,0,84.9,0.0,,,0.0,2,0,n/a,2020-09-27T00:09:51Z
2020-09-27 02:12:51,6,8,995.2,WSW,247,0,0,85.1,0.0,,,0.0,0,0,n/a,2020-09-27T00:12:51Z
2020-09-27 02:18:51,6.1,7.9,995.5,WSW,247,0,0,84.9,0.0,,,0.0,2,0,n/a,2020-09-27T00:18:51Z
2020-09-27 02:24:51,6.2,8,995.5,SW,225,0,0,85.5,0.0,,,0.0,0,0,n/a,2020-09-27T00:24:51Z
2020-09-27 02:27:51,6.2,7.9,995.5,SW,225,0,0,85.6,0.0,,,0.0,0,0,n/a,2020-09-27T00:27:51Z
2020-09-27 02:33:51,6.2,7.9,995.5,SW,225,0,0,85.3,0.0,,,0.0,0,0,n/a,2020-09-27T00:33:51Z
2020-09-27 02:39:51,6.1,7.9,995.5,North,0,0.3,0.7,85.8,0.0,,,0.0,0,0,n/a,2020-09-27T00:39:51Z
2020-09-27 02:42:51,6.1,8,995.5,SW,225,0,0,85.9,0.0,,,0.0,0,0,n/a,2020-09-27T00:42:51Z
2020-09-27 02:54:51,6.1,7.9,995.8,North,0,0,0,86,0.0,,,0.0,2,0,n/a,2020-09-27T00:54:51Z
2020-09-27 02:57:51,6.1,7.9,995.5,SSW,202,0,0,85.9,0.0,,,0.0,0,0,n/a,2020-09-27T00:57:51Z
2020-09-27 03:03:51,6.1,7.9,995.8,SSW,202,0,0,85.8,0.0,,,0.0,0,0,n/a,2020-09-27T01:03:51Z
2020-09-27 03:06:51,6.1,7.8,995.5,SSW,202,0,0,85.9,0.0,,,0.0,0,0,n/a,2020-09-27T01:06:51Z
2020-09-27 03:12:51,6.1,8.1,995.8,North,0,0,0,86.1,0.0,,,0.5,2,0,n/a,2020-09-27T01:12:51Z
2020-09-27 03:18:51,6.1,8,996.0,SSW,202,0,0,86.1,0.0,,,0.5,2,0,n/a,2020-09-27T01:18:51Z
2020-09-27 03:24:51,6.1,8,996.0,SSW,202,0,0,86.6,0.0,,,0.5,2,0,n/a,2020-09-27T01:24:51Z
2020-09-27 03:27:51,6.2,8,995.8,SSW,202,0,0,86.8,0.0,,,0.5,0,0,n/a,2020-09-27T01:27:51Z
2020-09-27 03:30:51,6.1,7.9,996.0,SSW,202,0,0,86.4,0.0,,,0.5,0,0,n/a,2020-09-27T01:30:51Z
2020-09-27 03:36:51,6.1,8,996.0,North,0,0,0,86.4,0.0,,,0.5,2,0,n/a,2020-09-27T01:36:51Z
2020-09-27 03:42:51,6.1,8,995.8,SSW,202,0,0,86.8,0.0,,,0.5,0,0,n/a,2020-09-27T01:42:51Z
2020-09-27 03:54:51,6.2,8.2,996.0,SSW,202,0,0,87.6,0.0,,,0.5,0,0,n/a,2020-09-27T01:54:51Z
2020-09-27 03:57:51,6.2,8,995.8,SSW,202,0,0,87.4,0.0,,,0.5,2,0,n/a,2020-09-27T01:57:51Z
2020-09-27 04:03:51,6.3,8.1,996.0,SSW,202,0,0,87.1,0.0,,,0.5,0,0,n/a,2020-09-27T02:03:51Z
2020-09-27 04:12:51,6.3,8,996.0,North,0,0,0,87.3,0.0,,,0.5,0,0,n/a,2020-09-27T02:12:51Z
2020-09-27 04:18:51,6.2,8.2,996.0,SSW,202,0,0,87.4,0.0,,,0.5,0,0,n/a,2020-09-27T02:18:51Z
2020-09-27 04:24:51,6.2,8.1,996.0,SSW,202,0,0,87.5,0.0,,,0.5,0,0,n/a,2020-09-27T02:24:51Z
2020-09-27 04:27:51,6.3,8.1,995.8,SSW,202,0,0,87,0.0,,,0.5,0,0,n/a,2020-09-27T02:27:51Z
2020-09-27 04:33:51,6.3,8.1,996.0,SSW,202,0,0,87.1,0.0,,,0.5,0,0,n/a,2020-09-27T02:33:51Z
2020-09-27 04:39:51,6.3,8.1,996.0,SSW,202,0,0,87,0.0,,,0.5,2,0,n/a,2020-09-27T02:39:51Z
2020-09-27 04:42:51,6.3,8.1,996.0,SSW,202,0,0,86.8,0.0,,,0.5,0,0,n/a,2020-09-27T02:42:51Z
2020-09-27 04:48:51,6.3,8.2,996.0,SSW,202,0,0,86.9,0.0,,,0.5,2,0,n/a,2020-09-27T02:48:51Z
2020-09-27 04:51:51,6.3,8.2,996.0,SSW,202,0,0,87,0.0,,,0.5,2,0,n/a,2020-09-27T02:51:51Z
2020-09-27 04:57:51,6.3,8.2,996.0,SSW,202,0,0,87.5,0.0,,,0.5,2,0,n/a,2020-09-27T02:57:51Z
2020-09-27 05:03:51,6.3,8.2,996.0,SSW,202,0,0,87.5,0.0,,,0.5,2,0,n/a,2020-09-27T03:03:51Z
2020-09-27 05:09:51,6.3,8.2,996.0,SSW,202,0,0,87.5,0.0,,,0.5,2,0,n/a,2020-09-27T03:09:51Z
2020-09-27 05:12:51,6.4,8.2,996.0,SSW,202,0,0,87.3,0.0,,,0.5,2,0,n/a,2020-09-27T03:12:51Z
2020-09-27 05:18:51,6.4,8.2,996.0,North,0,0,0,87.4,0.0,,,0.5,0,0,n/a,2020-09-27T03:18:51Z
2020-09-27 05:24:51,6.4,8.2,996.0,SSW,202,0,0,87.3,0.0,,,0.5,0,0,n/a,2020-09-27T03:24:51Z
2020-09-27 05:27:51,6.4,8.4,996.0,SSW,202,0,0,88,0.0,,,0.5,0,0,n/a,2020-09-27T03:27:51Z
2020-09-27 05:33:51,6.4,8.2,996.0,North,0,0,0,87.6,0.0,,,0.5,0,0,n/a,2020-09-27T03:33:51Z
2020-09-27 05:39:50,6.4,8.3,996.0,SSW,202,0,0,87.7,0.0,,,0.5,2,0,n/a,2020-09-27T03:39:50Z
2020-09-27 05:42:51,6.5,8.4,996.0,SSW,202,0,0,87.7,0.0,,,0.5,0,0,n/a,2020-09-27T03:42:51Z
2020-09-27 05:48:51,6.4,8.3,996.0,SSW,202,0,0,87.6,0.0,,,0.5,2,0,n/a,2020-09-27T03:48:51Z
2020-09-27 05:54:51,6.5,8.4,996.0,North,0,0,0,87.8,0.0,,,0.5,2,0,n/a,2020-09-27T03:54:51Z
2020-09-27 05:57:50,6.6,8.5,996.3,SSW,202,0,0,88.2,0.0,,,0.5,2,0,n/a,2020-09-27T03:57:50Z
2020-09-27 06:03:51,6.6,8.4,996.3,SSW,202,0,0,88,0.0,,,0.5,0,0,n/a,2020-09-27T04:03:51Z
2020-09-27 06:09:51,6.6,8.4,996.3,SSW,202,0,0,87.8,0.0,,,0.5,2,0,n/a,2020-09-27T04:09:51Z
2020-09-27 06:12:51,6.6,8.4,996.5,SSW,202,0,0,87.8,0.0,,,0.5,0,0,n/a,2020-09-27T04:12:51Z
2020-09-27 06:18:51,6.6,8.5,996.5,SSW,202,0,0,87.9,0.0,,,0.5,0,0,n/a,2020-09-27T04:18:51Z
2020-09-27 06:24:51,6.7,8.6,996.5,SSW,202,0,0,88.2,0.0,,,0.5,2,0,n/a,2020-09-27T04:24:51Z
2020-09-27 06:27:51,6.7,8.5,996.5,SSW,202,0,0,87.9,0.0,,,0.5,0,0,n/a,2020-09-27T04:27:51Z
2020-09-27 06:33:51,6.7,8.5,996.5,SSW,202,0,0,88,0.0,,,0.5,2,0,n/a,2020-09-27T04:33:51Z
2020-09-27 06:39:51,6.7,8.5,996.8,SSW,202,0,0,87.9,0.0,,,0.5,0,0,n/a,2020-09-27T04:39:51Z
2020-09-27 06:42:51,6.8,8.7,996.8,SSW,202,0,0,88.2,0.0,,,0.5,0,0,n/a,2020-09-27T04:42:51Z
2020-09-27 06:48:51,6.8,8.7,996.8,SSW,202,0,0,88,0.0,,,0.5,0,0,n/a,2020-09-27T04:48:51Z
2020-09-27 06:51:51,6.8,8.7,997.1,SSW,202,0,0,88.4,0.0,,,0.5,0,0,n/a,2020-09-27T04:51:51Z
2020-09-27 06:57:51,6.8,8.8,997.1,SSW,202,0,0,88.6,0.0,,,0.5,0,0,n/a,2020-09-27T04:57:51Z
2020-09-27 07:03:51,6.9,8.7,997.1,North,0,0,0,88.2,0.0,,,0.5,2,0,n/a,2020-09-27T05:03:51Z
2020-09-27 07:09:51,6.9,8.7,997.1,SSW,202,0,0,87.9,0.0,,,0.5,2,0,n/a,2020-09-27T05:09:51Z
2020-09-27 07:12:51,6.9,8.8,997.3,SSW,202,0,0,88.4,0.0,,,0.5,2,0,n/a,2020-09-27T05:12:51Z
2020-09-27 07:15:51,6.9,8.7,997.3,North,0,0,0,88.4,0.0,,,0.5,2,0,n/a,2020-09-27T05:15:51Z
2020-09-27 07:24:51,7,8.8,997.3,SSW,202,0,0,88.6,0.0,,,0.5,4,0,n/a,2020-09-27T05:24:51Z
2020-09-27 07:27:51,7,8.8,997.3,SSW,202,0,0,88.7,0.0,,,0.5,2,0,n/a,2020-09-27T05:27:51Z
2020-09-27 07:33:51,7.1,8.7,997.6,North,0,0.7,1.3,88.3,0.0,,,0.5,4,0,n/a,2020-09-27T05:33:51Z
2020-09-27 07:39:51,7.2,8.9,997.6,SSW,202,1,1.9,88.8,0.0,,,0.5,8,0,n/a,2020-09-27T05:39:51Z
2020-09-27 07:48:51,7.2,9,997.6,SSW,202,0,0,88.7,0.0,,,0.5,8,0,n/a,2020-09-27T05:48:51Z
2020-09-27 07:54:51,7.3,9,997.9,North,0,0.3,0.6,89.2,0.0,,,0.5,8,0,n/a,2020-09-27T05:54:51Z
2020-09-27 07:57:51,7.3,9.1,997.9,North,0,0,0,89.4,0.0,,,0.5,10,0,n/a,2020-09-27T05:57:51Z
2020-09-27 08:03:51,7.3,9,998.1,SW,225,3.8,3.9,88.9,0.0,,,1.0,12,0,n/a,2020-09-27T06:03:51Z
2020-09-27 08:09:51,7.3,9.1,998.1,South,180,4.8,5.8,89.5,0.0,,,1.0,16,0,n/a,2020-09-27T06:09:51Z
2020-09-27 08:12:51,7.4,9.1,998.1,North,0,3.8,3.9,89.6,0.0,,,1.0,10,0,n/a,2020-09-27T06:12:51Z
2020-09-27 08:18:51,7.4,9.1,998.4,SW,225,1,2,89.4,0.0,,,1.0,16,0,n/a,2020-09-27T06:18:51Z
2020-09-27 08:24:50,7.5,9.3,998.6,SSW,204,4.2,4.6,89.9,0.0,,,1.0,26,0,n/a,2020-09-27T06:24:50Z
2020-09-27 08:27:51,7.5,9.2,998.6,SSW,202,3.8,3.9,89.8,0.0,,,1.0,20,0,n/a,2020-09-27T06:27:51Z
2020-09-27 08:30:51,7.6,9.4,998.6,SSW,202,0.7,0.7,90,0.0,,,1.0,30,0,n/a,2020-09-27T06:30:51Z
2020-09-27 08:39:51,7.6,9.2,998.6,West,273,4.6,5.3,89.6,0.0,,,1.0,30,0.1,n/a,2020-09-27T06:39:51Z
2020-09-27 08:42:51,7.7,9.4,998.6,WSW,247,2.6,2.6,90,0.0,,,1.0,38,0.1,n/a,2020-09-27T06:42:51Z
2020-09-27 08:48:51,7.8,9.2,998.6,SW,225,7.1,7.2,89.6,0.0,,,1.0,42,0.1,n/a,2020-09-27T06:48:51Z
2020-09-27 08:54:51,7.8,9.3,998.9,SW,234,3.2,4.5,89.1,0.0,,,1.0,52,0.2,n/a,2020-09-27T06:54:51Z
2020-09-27 09:03:51,8.1,9.5,999.2,SSW,202,0,0,89.5,0.0,,,1.0,60,0.2,n/a,2020-09-27T07:03:51Z
2020-09-27 09:09:51,8.1,9.4,999.2,WNW,303,3.9,3.9,89.4,0.0,,,1.0,68,0.3,n/a,2020-09-27T07:09:51Z
2020-09-27 09:12:51,8.3,9.6,999.2,WSW,247,5.2,5.3,89,0.0,,,1.0,86,0.4,n/a,2020-09-27T07:12:51Z
2020-09-27 09:18:50,8.4,9.6,999.4,SSW,202,6.5,7.2,89.7,0.0,,,1.0,86,0.4,n/a,2020-09-27T07:18:50Z
2020-09-27 09:24:51,8.4,9.5,999.4,WSW,247,3.2,4.5,88.6,0.0,,,1.0,76,0.3,n/a,2020-09-27T07:24:51Z
2020-09-27 09:27:51,8.6,9.6,999.4,South,180,5.2,5.2,88.9,0.0,,,1.0,76,0.4,n/a,2020-09-27T07:27:51Z
2020-09-27 09:30:51,8.5,9.7,999.7,SSW,202,4.6,4.6,88.7,0.0,,,1.0,74,0.3,n/a,2020-09-27T07:30:51Z
2020-09-27 09:36:51,8.4,9.6,999.7,SSW,202,4.5,4.5,88.5,0.0,,,1.0,66,0.3,n/a,2020-09-27T07:36:51Z
2020-09-27 09:48:51,8.5,9.7,1000.0,North,0,0.7,1.3,88.1,0.0,,,1.0,46,0.2,n/a,2020-09-27T07:48:51Z
2020-09-27 09:54:51,8.4,9.7,1000.2,SW,225,0,0,88,0.0,,,1.0,40,0.1,n/a,2020-09-27T07:54:51Z
2020-09-27 09:57:51,8.4,9.8,1000.2,WSW,247,0,0,88.1,0.0,,,1.0,58,0.2,n/a,2020-09-27T07:57:51Z
2020-09-27 10:03:51,8.6,9.6,1000.5,SSW,202,5.2,5.3,88.2,0.0,,,1.0,130,0.7,n/a,2020-09-27T08:03:51Z
2020-09-27 10:09:55,9.1,9.8,1000.5,SW,226,5.9,6.6,88,0.0,,,1.0,154,0.7,n/a,2020-09-27T08:09:55Z
2020-09-27 10:12:51,9.3,9.9,1000.7,North,0,3.9,3.9,88.3,0.0,,,1.0,184,0.7,n/a,2020-09-27T08:12:51Z
2020-09-27 10:15:51,9.9,10.2,1000.7,WSW,247,2.6,2.6,89.1,0.0,,,1.0,202,0.8,n/a,2020-09-27T08:15:51Z
2020-09-27 10:24:51,10.5,10.7,1000.7,South,180,1.9,2,88.5,0.0,,,1.0,206,0.8,n/a,2020-09-27T08:24:51Z
2020-09-27 10:27:51,10.2,10.2,1000.7,SSW,202,4.5,4.5,86.3,0.0,,,1.0,198,0.7,n/a,2020-09-27T08:27:51Z
2020-09-27 10:33:51,10.1,10.4,1000.7,SW,229,5.2,6.5,87.2,0.0,,,1.0,156,0.6,n/a,2020-09-27T08:33:51Z
2020-09-27 10:39:51,10.1,10.5,1001.0,SSW,202,3.2,3.9,86.6,0.0,,,1.0,154,0.7,n/a,2020-09-27T08:39:51Z
2020-09-27 10:48:51,9.8,10.3,1001.0,South,180,3.2,3.2,85,0.0,,,1.0,140,0.6,n/a,2020-09-27T08:48:51Z
2020-09-27 10:54:51,10.1,10.3,1001.0,SSW,202,7.3,7.7,85.3,0.0,,,1.0,188,0.8,n/a,2020-09-27T08:54:51Z
2020-09-27 10:57:51,10.2,10.5,1001.3,South,180,3.9,3.9,85.3,0.0,,,1.0,156,0.6,n/a,2020-09-27T08:57:51Z
2020-09-27 11:03:51,10.4,10.4,1001.3,SSW,202,3.9,3.9,84.8,0.0,,,1.0,164,0.6,n/a,2020-09-27T09:03:51Z
2020-09-27 11:06:51,10.4,10.3,1001.3,North,0,2.6,2.6,83.5,0.0,,,1.0,172,0.7,n/a,2020-09-27T09:06:51Z
2020-09-27 11:12:51,10.6,10.4,1001.3,South,180,2,2,83.8,0.0,,,1.0,236,0.9,n/a,2020-09-27T09:12:51Z
2020-09-27 11:15:51,11.1,10.7,1001.3,SSW,202,4.5,4.6,84.4,0.0,,,1.0,282,1,n/a,2020-09-27T09:15:51Z
2020-09-27 11:24:51,11.3,10.9,1001.3,SW,217,5.5,7.2,84,0.0,,,1.0,570,1.4,n/a,2020-09-27T09:24:51Z
2020-09-27 11:27:51,11.4,11.1,1001.3,SSW,202,3.8,3.9,83.3,0.0,,,1.0,258,1,n/a,2020-09-27T09:27:51Z
2020-09-27 11:33:51,11.5,10.6,1001.3,WNW,284,6.1,6.6,80.8,0.0,,,1.0,234,1,n/a,2020-09-27T09:33:51Z
2020-09-27 11:39:51,11,10.5,1001.3,SSW,202,6.8,7.7,79.8,0.0,,,1.0,150,0.7,n/a,2020-09-27T09:39:51Z
2020-09-27 11:42:51,10.8,10.4,1001.3,North,0,3.3,3.3,79.5,0.0,,,1.0,110,0.5,n/a,2020-09-27T09:42:51Z
2020-09-27 11:48:51,10.5,10.3,1001.3,South,189,3.2,3.8,79.3,0.0,,,1.0,140,0.6,n/a,2020-09-27T09:48:51Z
2020-09-27 11:54:51,11,10.5,1001.3,SSW,202,2.6,4.5,79.9,0.0,,,1.0,236,1,n/a,2020-09-27T09:54:51Z
2020-09-27 11:57:51,11.5,10.8,1001.3,SSW,202,5.8,5.9,80.4,0.0,,,1.0,254,1,n/a,2020-09-27T09:57:51Z
2020-09-27 12:03:51,11.5,10.8,1001.5,South,180,5.1,5.2,79.5,0.0,,,1.0,282,1.3,n/a,2020-09-27T10:03:51Z
2020-09-27 12:09:51,12.1,10.9,1001.5,SW,219,6.5,8.5,79.2,0.0,,,1.0,266,1.2,n/a,2020-09-27T10:09:51Z
2020-09-27 12:12:51,11.6,10.8,1001.5,SSE,157,0,0,78,0.0,,,1.0,254,1.1,n/a,2020-09-27T10:12:51Z
2020-09-27 12:15:56,12.1,11.2,1001.5,SSW,202,0.3,0.6,79.9,0.0,,,1.0,304,1.4,n/a,2020-09-27T10:15:56Z
2020-09-27 12:24:51,11.8,10.9,1001.8,SSW,202,4.2,5.8,77.9,0.0,,,1.0,226,1.1,n/a,2020-09-27T10:24:51Z
2020-09-27 12:33:51,11.7,10.6,1001.8,SSE,157,1,2,76.8,0.0,,,1.0,254,1.2,n/a,2020-09-27T10:33:51Z
2020-09-27 12:39:57,11.8,10.5,1001.8,South,180,0.5,1.2,75.7,0.0,,,1.0,216,1,n/a,2020-09-27T10:39:57Z
2020-09-27 12:42:56,12.3,10.7,1001.8,SSW,203,5.7,5.9,76.3,0.0,,,1.0,214,0.9,n/a,2020-09-27T10:42:56Z
2020-09-27 12:45:56,11.8,10.8,1001.8,SSW,202,3.5,3.7,76.7,0.0,,,1.0,240,1.1,n/a,2020-09-27T10:45:56Z
2020-09-27 12:57:51,11.1,10.3,1002.0,North,0,0,0,74.6,0.0,,,1.0,124,0.6,n/a,2020-09-27T10:57:51Z
2020-09-27 13:09:51,10.7,10.4,1002.3,SSW,202,2.9,3.3,75.8,0.0,,,1.0,96,0.3,n/a,2020-09-27T11:09:51Z
2020-09-27 13:12:51,10.9,10.4,1002.0,SSW,202,0,0,76.3,0.0,,,1.0,140,0.4,n/a,2020-09-27T11:12:51Z
2020-09-27 13:18:51,11.7,10.8,1002.3,SW,225,0.7,1.3,76.8,0.0,,,1.0,160,0.8,n/a,2020-09-27T11:18:51Z
2020-09-27 13:21:51,11.7,11.1,1002.3,SSW,202,0,0,77.4,0.0,,,1.0,130,0.5,n/a,2020-09-27T11:21:51Z
2020-09-27 13:27:51,12.3,10.8,1002.3,North,0,3.8,3.9,76.4,0.0,,,1.0,196,0.7,n/a,2020-09-27T11:27:51Z
2020-09-27 13:39:51,12.6,10.4,1002.3,South,180,3.3,3.3,72.3,0.0,,,1.0,236,1.1,n/a,2020-09-27T11:39:51Z
2020-09-27 13:42:51,12.6,10.5,1002.3,North,0,8.5,8.5,72.5,0.0,,,1.0,238,1.1,n/a,2020-09-27T11:42:51Z
2020-09-27 13:57:51,12.4,10.6,1002.3,North,0,7.8,7.9,71.2,0.0,,,1.0,214,1,n/a,2020-09-27T11:57:51Z
2020-09-27 14:03:51,12.8,10.9,1002.3,SSW,202,1.9,2,71.7,0.0,,,1.0,188,0.8,n/a,2020-09-27T12:03:51Z
2020-09-27 14:06:55,12.8,11,1002.3,South,180,2.6,2.7,72.5,0.0,,,1.0,166,0.8,n/a,2020-09-27T12:06:55Z
2020-09-27 14:12:51,12.3,10.7,1002.6,SSW,202,3.3,3.3,71.2,0.0,,,1.0,116,0.5,n/a,2020-09-27T12:12:51Z
2020-09-27 14:18:51,12.3,10.8,1002.6,SW,217,7.5,9.8,71.6,0.0,,,1.0,138,0.5,n/a,2020-09-27T12:18:51Z
2020-09-27 14:24:51,12.3,10.7,1002.6,WSW,245,3,5.2,71.9,0.0,,,1.0,188,0.9,n/a,2020-09-27T12:24:51Z
2020-09-27 14:27:51,12.3,10.6,1002.3,North,0,0,0,71.3,0.0,,,1.0,158,0.7,n/a,2020-09-27T12:27:51Z
2020-09-27 14:33:51,12.1,10.8,1002.3,SSE,157,1.9,2,72.5,0.0,,,1.0,100,0.4,n/a,2020-09-27T12:33:51Z
2020-09-27 14:39:51,11.9,10.7,1002.3,SSW,202,2.3,4.6,72.1,0.0,,,1.0,90,0.4,n/a,2020-09-27T12:39:51Z
2020-09-27 14:48:50,11.4,10.5,1002.6,South,180,1.6,3.2,72.2,0.0,,,1.0,74,0.2,n/a,2020-09-27T12:48:50Z
2020-09-27 14:57:51,12.4,10.7,1002.6,SSW,202,5.9,5.9,72.5,0.0,,,1.0,278,1,n/a,2020-09-27T12:57:51Z
2020-09-27 15:00:51,13.1,11.3,1002.6,SW,225,7.8,7.9,73.9,0.0,,,1.0,308,1,n/a,2020-09-27T13:00:51Z
2020-09-27 15:09:51,13.8,11.5,1002.6,WNW,303,3.3,3.3,72.8,0.0,,,1.0,830,1.6,n/a,2020-09-27T13:09:51Z
2020-09-27 15:12:51,13.7,11.5,1002.6,SSW,202,1.9,1.9,71.4,0.0,,,1.0,300,1,n/a,2020-09-27T13:12:51Z
2020-09-27 15:18:51,13.2,11.1,1002.8,SW,225,2.9,5.9,69.7,0.0,,,1.0,268,1,n/a,2020-09-27T13:18:51Z
2020-09-27 15:21:51,12.9,10.7,1002.8,North,0,6.4,6.5,68.2,0.0,,,1.0,194,0.9,n/a,2020-09-27T13:21:51Z
2020-09-27 15:27:51,13.3,11.2,1002.8,North,0,8.4,8.5,70.2,0.0,,,1.0,154,0.7,n/a,2020-09-27T13:27:51Z
2020-09-27 15:36:51,13,11.1,1003.1,South,180,1.3,1.3,70,0.0,,,1.0,128,0.5,n/a,2020-09-27T13:36:51Z
2020-09-27 15:42:51,13,11,1002.8,SSW,202,2.6,2.6,69.2,0.0,,,1.0,182,0.7,n/a,2020-09-27T13:42:51Z
2020-09-27 15:45:51,13.1,11,1002.8,SSW,202,2.6,2.6,69.3,0.0,,,1.0,210,0.8,n/a,2020-09-27T13:45:51Z
2020-09-27 15:51:51,13.3,11,1002.8,SSE,157,0,0,69.3,0.0,,,1.0,216,0.8,n/a,2020-09-27T13:51:51Z
2020-09-27 15:57:51,12.9,11,1002.8,North,0,0,0,68.9,0.0,,,1.0,132,0.6,n/a,2020-09-27T13:57:51Z
2020-09-27 16:00:51,13.1,11,1002.8,SSW,202,8.9,9,69.2,0.0,,,1.0,102,0.4,n/a,2020-09-27T14:00:51Z
2020-09-27 16:09:51,12.4,10.8,1003.1,SSW,202,1.9,2,69.5,0.0,,,1.0,48,0.1,n/a,2020-09-27T14:09:51Z
2020-09-27 16:21:51,12.4,11,1003.4,South,180,0,0,70,0.0,,,1.0,76,0.4,n/a,2020-09-27T14:21:51Z
2020-09-27 16:27:51,12.5,11.1,1003.4,South,180,0,0,70.3,0.0,,,1.0,92,0.4,n/a,2020-09-27T14:27:51Z
2020-09-27 16:30:51,12.8,11.3,1003.4,WSW,247,3.3,3.3,71,0.0,,,1.0,84,0.4,n/a,2020-09-27T14:30:51Z
2020-09-27 16:39:51,12.8,11.1,1003.4,SSW,202,0,0,70.4,0.0,,,1.0,90,0.4,n/a,2020-09-27T14:39:51Z
2020-09-27 16:42:51,12.8,11.3,1003.4,North,0,0,0,70.5,0.0,,,1.0,102,0.4,n/a,2020-09-27T14:42:51Z
2020-09-27 16:48:51,12.8,11.2,1003.4,SSW,202,0,0,70.4,0.0,,,1.0,78,0.4,n/a,2020-09-27T14:48:51Z
2020-09-27 16:54:51,12.7,11,1003.4,SSW,213,0.6,0.7,69.4,0.0,,,1.0,68,0.3,n/a,2020-09-27T14:54:51Z
2020-09-27 16:57:51,12.5,10.9,1003.4,SSW,202,1.9,1.9,69.3,0.0,,,1.0,60,0.2,n/a,2020-09-27T14:57:51Z
2020-09-27 17:00:51,12.7,10.8,1003.4,SW,225,3.9,3.9,69.1,0.0,,,1.0,68,0.3,n/a,2020-09-27T15:00:51Z
2020-09-27 17:06:51,12.5,10.9,1003.6,SSW,202,0,0,69.9,0.0,,,1.0,66,0.3,n/a,2020-09-27T15:06:51Z
2020-09-27 17:18:51,12.3,11,1003.9,North,0,0,0,69.7,0.0,,,1.0,52,0.2,n/a,2020-09-27T15:18:51Z
2020-09-27 17:24:51,12.2,11,1003.9,North,0,0,0,69.9,0.0,,,1.0,56,0.2,n/a,2020-09-27T15:24:51Z
2020-09-27 17:48:51,12,11.1,1003.9,SSW,202,0,0,71,0.0,,,1.0,58,0.1,n/a,2020-09-27T15:48:51Z
2020-09-27 18:03:51,13.4,11,1003.9,South,180,0,0,69.3,0.0,,,1.0,260,0.2,n/a,2020-09-27T16:03:51Z
2020-09-27 18:15:51,12.9,10.9,1004.1,SSE,157,0,0,68.8,0.0,,,1.0,50,0.1,n/a,2020-09-27T16:15:51Z
2020-09-27 18:24:54,12.6,10.8,1004.4,SSW,202,0,0,69.4,0.0,,,1.0,100,0.1,n/a,2020-09-27T16:24:54Z
2020-09-27 18:27:56,12.4,10.8,1004.4,SSW,202,0,0,69.7,0.0,,,1.0,38,0,n/a,2020-09-27T16:27:56Z
2020-09-27 18:30:51,12.3,10.7,1004.4,SSW,202,0,0,70,0.0,,,1.0,18,0,n/a,2020-09-27T16:30:51Z
2020-09-27 18:42:51,11.8,10.8,1004.4,SSW,202,0,0,71.5,0.0,,,1.0,14,0,n/a,2020-09-27T16:42:51Z
2020-09-27 18:51:51,10.5,10.8,1004.4,SSW,202,0,0,72.5,0.0,,,1.0,8,0,n/a,2020-09-27T16:51:51Z
2020-09-27 18:57:51,9.8,10.8,1004.4,SSW,202,0,0,73,0.0,,,1.0,6,0,n/a,2020-09-27T16:57:51Z
2020-09-27 19:03:51,9.7,10.3,1004.4,SSW,202,0,0,72.3,0.0,,,1.0,4,0,n/a,2020-09-27T17:03:51Z
2020-09-27 19:09:56,8.9,10,1004.4,North,0,0,0,72.4,0.0,,,1.0,2,0,n/a,2020-09-27T17:09:56Z
2020-09-27 19:15:51,9.1,10,1004.7,SSW,202,0,0,73.2,0.0,,,1.0,2,0,n/a,2020-09-27T17:15:51Z
2020-09-27 19:24:51,8.1,9.5,1004.7,North,0,0,0,73.2,0.0,,,1.0,2,0,n/a,2020-09-27T17:24:51Z
2020-09-27 19:39:51,7.2,9,1004.9,South,180,0,0,73.4,0.0,,,1.0,0,0,n/a,2020-09-27T17:39:51Z
2020-09-27 19:42:51,7.4,9,1004.9,North,0,0,0,73.4,0.0,,,1.0,0,0,n/a,2020-09-27T17:42:51Z
2020-09-27 19:48:51,7.2,9,1004.9,SSE,157,0,0,74,0.0,,,1.0,2,0,n/a,2020-09-27T17:48:51Z
2020-09-27 19:54:51,7.5,9.1,1004.9,SSE,157,0,0,75,0.0,,,1.0,2,0,n/a,2020-09-27T17:54:51Z
2020-09-27 20:03:51,7.8,9,1005.2,SSE,157,0,0,75.3,0.0,,,1.0,0,0,n/a,2020-09-27T18:03:51Z
2020-09-27 20:09:51,7.8,9.2,1005.2,SSE,157,0,0,76.5,0.0,,,1.0,0,0,n/a,2020-09-27T18:09:51Z
2020-09-27 20:15:51,7.9,9.4,1005.5,SSE,157,0,0,77,0.0,,,1.0,0,0,n/a,2020-09-27T18:15:51Z
2020-09-27 20:24:51,8.2,9.6,1005.5,SSE,157,0,0,78.2,0.0,,,1.0,0,0,n/a,2020-09-27T18:24:51Z
2020-09-27 20:27:51,8.2,9.8,1005.5,SSE,157,0,0,78.5,0.0,,,1.0,0,0,n/a,2020-09-27T18:27:51Z
2020-09-27 20:39:51,8,9.7,1005.7,SSE,157,0,0,78.8,0.0,,,1.0,0,0,n/a,2020-09-27T18:39:51Z
2020-09-27 20:42:51,8.1,9.7,1006.0,North,0,0,0,79.2,0.0,,,1.0,2,0,n/a,2020-09-27T18:42:51Z
2020-09-27 20:48:51,7.9,9.8,1006.0,SSE,157,0,0,79.2,0.0,,,1.0,0,0,n/a,2020-09-27T18:48:51Z
2020-09-27 20:54:51,7.9,9.6,1006.0,SSE,157,0,0,79.4,0.0,,,1.0,0,0,n/a,2020-09-27T18:54:51Z
2020-09-27 21:09:51,8.2,9.7,1006.2,SSE,157,0,0,80,0.0,,,1.0,0,0,n/a,2020-09-27T19:09:51Z
2020-09-27 21:12:51,8.3,9.8,1006.2,North,0,0,0,80.1,0.0,,,1.0,0,0,n/a,2020-09-27T19:12:51Z
2020-09-27 21:18:51,8.3,9.9,1006.5,SSE,157,0,0,80.5,0.0,,,1.0,0,0,n/a,2020-09-27T19:18:51Z
2020-09-27 21:24:51,8.3,10,1006.5,SSE,157,0,0,80.8,0.0,,,1.0,2,0,n/a,2020-09-27T19:24:51Z
2020-09-27 21:27:51,8.4,10,1006.5,SSE,157,0,0,80.9,0.0,,,1.0,0,0,n/a,2020-09-27T19:27:51Z
2020-09-27 21:30:51,8.3,9.9,1006.5,SSE,157,0,0,81.1,0.0,,,1.0,0,0,n/a,2020-09-27T19:30:51Z
2020-09-27 21:39:51,8.4,10,1006.5,SSE,157,0,0,81.3,0.0,,,1.0,2,0,n/a,2020-09-27T19:39:51Z
2020-09-27 21:42:51,8.6,10,1006.5,SSE,157,0,0,81.4,0.0,,,1.0,0,0,n/a,2020-09-27T19:42:51Z
2020-09-27 21:48:51,8.5,10.1,1006.5,SSE,157,0,0,81.5,0.0,,,1.0,2,0,n/a,2020-09-27T19:48:51Z
2020-09-27 21:54:50,8.6,10.1,1006.5,SSE,157,0,0,81.6,0.0,,,1.0,0,0,n/a,2020-09-27T19:54:50Z